createdAt,value
2016-01-04T00:00:06.578Z,71536
2016-01-04T00:00:18.940Z,71540
2016-01-04T00:00:31.300Z,71543
2016-01-04T00:00:43.659Z,71537
2016-01-04T00:00:56.018Z,71539
2016-01-04T00:01:08.378Z,71530
2016-01-04T00:01:20.740Z,71532
2016-01-04T00:01:33.115Z,71524
2016-01-04T00:01:45.475Z,71523
2016-01-04T00:01:57.834Z,71531
2016-01-04T00:02:10.217Z,71537
2016-01-04T00:02:22.626Z,71537
2016-01-04T00:02:34.829Z,71531
2016-01-04T00:02:47.204Z,71525
2016-01-04T00:02:59.579Z,71524
2016-01-04T00:03:12.626Z,71529
2016-01-04T00:03:25.035Z,71536
2016-01-04T00:03:37.426Z,71538
2016-01-04T00:03:49.801Z,71538
2016-01-04T00:04:02.207Z,71527
2016-01-04T00:04:14.584Z,71524
2016-01-04T00:04:26.975Z,71520
2016-01-04T00:04:39.397Z,71509
2016-01-04T00:04:51.756Z,71500
2016-01-04T00:05:04.100Z,71502
2016-01-04T00:05:16.462Z,71501
2016-01-04T00:05:28.821Z,71505
2016-01-04T00:05:41.181Z,71501
2016-01-04T00:05:53.540Z,71505
2016-01-04T00:06:05.900Z,71514
2016-01-04T00:06:18.262Z,71512
2016-01-04T00:06:30.621Z,71508
2016-01-04T00:06:42.996Z,71512
2016-01-04T00:06:55.356Z,71518
2016-01-04T00:07:07.699Z,71522
2016-01-04T00:07:20.062Z,71532
2016-01-04T00:07:32.437Z,71533
2016-01-04T00:07:44.812Z,71530
2016-01-04T00:07:57.187Z,71513
2016-01-04T00:08:09.562Z,71516
2016-01-04T00:08:21.923Z,71514
2016-01-04T00:08:34.314Z,71512
2016-01-04T00:08:46.720Z,71511
2016-01-04T00:08:59.111Z,71511
2016-01-04T00:09:11.501Z,71516
2016-01-04T00:09:23.864Z,71519
2016-01-04T00:09:36.223Z,71517
2016-01-04T00:09:48.582Z,71513
2016-01-04T00:10:00.942Z,71518
2016-01-04T00:10:13.301Z,71522
2016-01-04T00:10:25.664Z,71530
2016-01-04T00:10:38.023Z,71530
2016-01-04T00:10:50.382Z,71534
2016-01-04T00:11:02.742Z,71533
2016-01-04T00:11:15.101Z,71531
2016-01-04T00:11:27.462Z,71526
2016-01-04T00:11:39.837Z,71513
2016-01-04T00:11:52.212Z,71517
2016-01-04T00:12:04.587Z,71504
2016-01-04T00:12:16.978Z,71499
2016-01-04T00:12:29.373Z,71511
2016-01-04T00:12:41.810Z,71512
2016-01-04T00:12:54.170Z,71516
2016-01-04T00:13:06.513Z,71510
2016-01-04T00:13:18.873Z,71511
2016-01-04T00:13:31.234Z,71516
2016-01-04T00:13:43.593Z,71519
2016-01-04T00:13:55.953Z,71523
2016-01-04T00:14:08.312Z,71534
2016-01-04T00:14:20.656Z,71539
2016-01-04T00:14:33.017Z,71536
2016-01-04T00:14:45.377Z,71536
2016-01-04T00:14:57.752Z,71535
2016-01-04T00:15:10.095Z,71539
2016-01-04T00:15:22.470Z,71525
2016-01-04T00:15:34.834Z,71526
2016-01-04T00:15:47.209Z,71523
2016-01-04T00:15:59.568Z,71524
2016-01-04T00:16:11.943Z,71516
2016-01-04T00:16:24.334Z,71520
2016-01-04T00:16:36.726Z,71509
2016-01-04T00:16:49.117Z,71503
2016-01-04T00:17:01.508Z,71487
2016-01-04T00:17:13.883Z,71478
2016-01-04T00:17:25.555Z,71483
2016-01-04T00:17:37.948Z,71488
2016-01-04T00:17:50.339Z,71486
2016-01-04T00:18:02.698Z,71501
2016-01-04T00:18:15.058Z,71505
2016-01-04T00:18:27.417Z,71506
2016-01-04T00:18:39.778Z,71511
2016-01-04T00:18:52.153Z,71516
2016-01-04T00:19:04.513Z,71516
2016-01-04T00:19:16.856Z,71522
2016-01-04T00:19:29.216Z,71519
2016-01-04T00:19:41.594Z,71530
2016-01-04T00:19:53.953Z,71537
2016-01-04T00:20:06.313Z,71541
2016-01-04T00:20:18.656Z,71544
2016-01-04T00:20:31.047Z,71545
2016-01-04T00:20:43.441Z,71543
2016-01-04T00:20:55.800Z,71538
2016-01-04T00:21:08.175Z,71533
2016-01-04T00:21:20.550Z,71535
2016-01-04T00:21:32.925Z,71534
2016-01-04T00:21:45.303Z,71517
2016-01-04T00:21:57.678Z,71516
2016-01-04T00:22:10.069Z,71517
2016-01-04T00:22:22.444Z,71517
2016-01-04T00:22:34.865Z,71500
2016-01-04T00:22:47.275Z,71500
2016-01-04T00:22:59.618Z,71497
2016-01-04T00:23:11.978Z,71496
2016-01-04T00:23:24.337Z,71490
2016-01-04T00:23:36.697Z,71477
2016-01-04T00:23:49.059Z,71478
